sensor_id;sensor_type;location;lat;lon;timestamp;temperature;humidity
21891;DHT22;11110;52.386;16.940;2023-10-31T00:01:22;26.40;52.10
21891;DHT22;11110;52.386;16.940;2023-10-31T00:03:50;26.30;52.10
21891;DHT22;11110;52.386;16.940;2023-10-31T00:06:19;26.40;52.20
21891;DHT22;11110;52.386;16.940;2023-10-31T00:08:47;26.40;52.10
21891;DHT22;11110;52.386;16.940;2023-10-31T00:11:16;26.40;52.10
21891;DHT22;11110;52.386;16.940;2023-10-31T00:13:45;26.40;52.10
21891;DHT22;11110;52.386;16.940;2023-10-31T00:16:15;26.40;52.00
21891;DHT22;11110;52.386;16.940;2023-10-31T00:18:43;26.50;52.00
21891;DHT22;11110;52.386;16.940;2023-10-31T00:21:12;26.40;52.10
21891;DHT22;11110;52.386;16.940;2023-10-31T00:23:44;26.50;52.00
21891;DHT22;11110;52.386;16.940;2023-10-31T00:26:12;26.50;52.00
21891;DHT22;11110;52.386;16.940;2023-10-31T00:28:49;26.50;52.10
21891;DHT22;11110;52.386;16.940;2023-10-31T00:31:18;26.50;52.00
21891;DHT22;11110;52.386;16.940;2023-10-31T00:33:48;26.50;52.10
21891;DHT22;11110;52.386;16.940;2023-10-31T00:36:16;26.40;52.10
21891;DHT22;11110;52.386;16.940;2023-10-31T00:38:45;26.40;52.10
21891;DHT22;11110;52.386;16.940;2023-10-31T00:41:13;26.40;52.20
21891;DHT22;11110;52.386;16.940;2023-10-31T00:43:42;26.40;52.20
21891;DHT22;11110;52.386;16.940;2023-10-31T00:46:10;26.40;52.40
21891;DHT22;11110;52.386;16.940;2023-10-31T00:48:41;26.40;52.40
21891;DHT22;11110;52.386;16.940;2023-10-31T00:51:09;26.30;52.50
21891;DHT22;11110;52.386;16.940;2023-10-31T00:53:38;26.30;52.40
21891;DHT22;11110;52.386;16.940;2023-10-31T00:56:07;26.30;52.50
21891;DHT22;11110;52.386;16.940;2023-10-31T00:58:36;26.30;52.50
21891;DHT22;11110;52.386;16.940;2023-10-31T01:01:05;26.20;52.40
21891;DHT22;11110;52.386;16.940;2023-10-31T01:03:34;26.20;52.50
21891;DHT22;11110;52.386;16.940;2023-10-31T01:06:04;26.20;52.60
21891;DHT22;11110;52.386;16.940;2023-10-31T01:08:33;26.20;52.70
21891;DHT22;11110;52.386;16.940;2023-10-31T01:11:02;26.10;52.60
21891;DHT22;11110;52.386;16.940;2023-10-31T01:13:31;26.20;52.90
21891;DHT22;11110;52.386;16.940;2023-10-31T01:16:00;26.20;52.90
21891;DHT22;11110;52.386;16.940;2023-10-31T01:18:29;26.20;52.80
21891;DHT22;11110;52.386;16.940;2023-10-31T01:20:58;26.20;52.70
21891;DHT22;11110;52.386;16.940;2023-10-31T01:23:28;26.30;52.70
21891;DHT22;11110;52.386;16.940;2023-10-31T01:25:57;26.30;52.60
21891;DHT22;11110;52.386;16.940;2023-10-31T01:28:26;26.30;52.70
21891;DHT22;11110;52.386;16.940;2023-10-31T01:30:54;26.30;52.60
21891;DHT22;11110;52.386;16.940;2023-10-31T01:33:24;26.30;52.50
21891;DHT22;11110;52.386;16.940;2023-10-31T01:35:53;26.30;52.50
21891;DHT22;11110;52.386;16.940;2023-10-31T01:38:21;26.30;52.50
21891;DHT22;11110;52.386;16.940;2023-10-31T01:40:52;26.30;52.60
21891;DHT22;11110;52.386;16.940;2023-10-31T01:43:31;26.20;52.60
21891;DHT22;11110;52.386;16.940;2023-10-31T01:46:00;26.30;52.70
21891;DHT22;11110;52.386;16.940;2023-10-31T01:48:30;26.20;52.70
21891;DHT22;11110;52.386;16.940;2023-10-31T01:51:00;26.30;52.70
21891;DHT22;11110;52.386;16.940;2023-10-31T01:53:32;26.20;52.70
21891;DHT22;11110;52.386;16.940;2023-10-31T01:56:03;26.20;52.60
21891;DHT22;11110;52.386;16.940;2023-10-31T01:58:35;26.30;52.80
21891;DHT22;11110;52.386;16.940;2023-10-31T02:01:04;26.30;52.90
21891;DHT22;11110;52.386;16.940;2023-10-31T02:03:34;26.20;52.80
21891;DHT22;11110;52.386;16.940;2023-10-31T02:06:03;26.20;53.40
21891;DHT22;11110;52.386;16.940;2023-10-31T02:08:32;26.20;52.80
21891;DHT22;11110;52.386;16.940;2023-10-31T02:11:02;26.20;52.90
21891;DHT22;11110;52.386;16.940;2023-10-31T02:13:33;26.30;53.00
21891;DHT22;11110;52.386;16.940;2023-10-31T02:16:02;26.30;52.90
21891;DHT22;11110;52.386;16.940;2023-10-31T02:18:30;26.30;52.80
21891;DHT22;11110;52.386;16.940;2023-10-31T02:20:59;26.30;52.80
21891;DHT22;11110;52.386;16.940;2023-10-31T02:23:29;26.40;52.90
21891;DHT22;11110;52.386;16.940;2023-10-31T02:25:58;26.40;52.60
21891;DHT22;11110;52.386;16.940;2023-10-31T02:28:26;26.40;52.60
21891;DHT22;11110;52.386;16.940;2023-10-31T02:30:55;26.50;52.70
21891;DHT22;11110;52.386;16.940;2023-10-31T02:33:24;26.50;53.30
21891;DHT22;11110;52.386;16.940;2023-10-31T02:35:52;26.50;52.70
21891;DHT22;11110;52.386;16.940;2023-10-31T02:38:21;26.50;52.70
21891;DHT22;11110;52.386;16.940;2023-10-31T02:40:52;26.50;52.70
21891;DHT22;11110;52.386;16.940;2023-10-31T02:43:21;26.50;52.70
21891;DHT22;11110;52.386;16.940;2023-10-31T02:45:49;26.50;52.80
21891;DHT22;11110;52.386;16.940;2023-10-31T02:48:18;26.40;52.80
21891;DHT22;11110;52.386;16.940;2023-10-31T02:50:47;26.40;52.90
21891;DHT22;11110;52.386;16.940;2023-10-31T02:53:17;26.40;53.00
21891;DHT22;11110;52.386;16.940;2023-10-31T02:55:45;26.40;53.00
21891;DHT22;11110;52.386;16.940;2023-10-31T02:58:16;26.40;53.00
21891;DHT22;11110;52.386;16.940;2023-10-31T03:00:45;26.40;53.00
21891;DHT22;11110;52.386;16.940;2023-10-31T03:03:14;26.40;53.10
21891;DHT22;11110;52.386;16.940;2023-10-31T03:05:44;26.40;53.00
21891;DHT22;11110;52.386;16.940;2023-10-31T03:08:13;26.40;53.00
21891;DHT22;11110;52.386;16.940;2023-10-31T03:10:41;26.40;53.10
21891;DHT22;11110;52.386;16.940;2023-10-31T03:13:10;26.30;53.10
21891;DHT22;11110;52.386;16.940;2023-10-31T03:15:40;26.30;53.20
21891;DHT22;11110;52.386;16.940;2023-10-31T03:18:09;26.40;53.30
21891;DHT22;11110;52.386;16.940;2023-10-31T03:20:37;26.30;53.30
21891;DHT22;11110;52.386;16.940;2023-10-31T03:23:06;26.40;53.30
21891;DHT22;11110;52.386;16.940;2023-10-31T03:25:34;26.40;53.30
21891;DHT22;11110;52.386;16.940;2023-10-31T03:28:04;26.40;53.20
21891;DHT22;11110;52.386;16.940;2023-10-31T03:30:32;26.50;53.30
21891;DHT22;11110;52.386;16.940;2023-10-31T03:33:02;26.50;53.30
21891;DHT22;11110;52.386;16.940;2023-10-31T03:35:31;26.50;53.20
21891;DHT22;11110;52.386;16.940;2023-10-31T03:38:00;26.50;53.20
21891;DHT22;11110;52.386;16.940;2023-10-31T03:40:28;26.60;53.20
21891;DHT22;11110;52.386;16.940;2023-10-31T03:42:57;26.60;53.20
21891;DHT22;11110;52.386;16.940;2023-10-31T03:45:26;26.60;53.20
21891;DHT22;11110;52.386;16.940;2023-10-31T03:47:55;26.60;53.20
21891;DHT22;11110;52.386;16.940;2023-10-31T03:50:25;26.60;53.20
21891;DHT22;11110;52.386;16.940;2023-10-31T03:52:54;26.60;53.20
21891;DHT22;11110;52.386;16.940;2023-10-31T03:55:23;26.60;53.20
21891;DHT22;11110;52.386;16.940;2023-10-31T03:57:52;26.60;53.20
21891;DHT22;11110;52.386;16.940;2023-10-31T04:00:21;26.70;53.20
21891;DHT22;11110;52.386;16.940;2023-10-31T04:02:49;26.60;53.20
21891;DHT22;11110;52.386;16.940;2023-10-31T04:05:19;26.70;53.30
21891;DHT22;11110;52.386;16.940;2023-10-31T04:07:50;26.60;53.20
21891;DHT22;11110;52.386;16.940;2023-10-31T04:10:19;26.60;53.20
21891;DHT22;11110;52.386;16.940;2023-10-31T04:12:47;26.60;53.30
21891;DHT22;11110;52.386;16.940;2023-10-31T04:15:16;26.60;53.30
21891;DHT22;11110;52.386;16.940;2023-10-31T04:17:45;26.60;53.40
21891;DHT22;11110;52.386;16.940;2023-10-31T04:20:14;26.60;53.40
21891;DHT22;11110;52.386;16.940;2023-10-31T04:22:42;26.70;53.50
21891;DHT22;11110;52.386;16.940;2023-10-31T04:25:12;26.60;53.50
21891;DHT22;11110;52.386;16.940;2023-10-31T04:27:41;26.70;53.60
21891;DHT22;11110;52.386;16.940;2023-10-31T04:30:10;26.60;53.50
21891;DHT22;11110;52.386;16.940;2023-10-31T04:32:41;26.70;53.70
21891;DHT22;11110;52.386;16.940;2023-10-31T04:35:10;26.70;53.80
21891;DHT22;11110;52.386;16.940;2023-10-31T04:37:38;26.70;53.80
21891;DHT22;11110;52.386;16.940;2023-10-31T04:40:08;26.80;54.50
21891;DHT22;11110;52.386;16.940;2023-10-31T04:42:40;26.80;53.80
21891;DHT22;11110;52.386;16.940;2023-10-31T04:45:09;26.80;53.60
21891;DHT22;11110;52.386;16.940;2023-10-31T04:47:41;26.80;53.70
21891;DHT22;11110;52.386;16.940;2023-10-31T04:50:10;26.80;53.80
21891;DHT22;11110;52.386;16.940;2023-10-31T04:52:38;26.90;53.90
21891;DHT22;11110;52.386;16.940;2023-10-31T04:55:07;26.80;53.80
21891;DHT22;11110;52.386;16.940;2023-10-31T04:57:36;26.90;53.70
21891;DHT22;11110;52.386;16.940;2023-10-31T05:00:07;26.90;53.80
21891;DHT22;11110;52.386;16.940;2023-10-31T05:02:36;27.00;53.90
21891;DHT22;11110;52.386;16.940;2023-10-31T05:05:05;27.00;53.90
21891;DHT22;11110;52.386;16.940;2023-10-31T05:07:34;27.00;53.80
21891;DHT22;11110;52.386;16.940;2023-10-31T05:10:03;27.00;53.80
21891;DHT22;11110;52.386;16.940;2023-10-31T05:12:31;27.00;53.50
21891;DHT22;11110;52.386;16.940;2023-10-31T05:15:00;27.00;53.60
21891;DHT22;11110;52.386;16.940;2023-10-31T05:17:31;27.00;53.80
21891;DHT22;11110;52.386;16.940;2023-10-31T05:20:00;27.00;53.50
21891;DHT22;11110;52.386;16.940;2023-10-31T05:22:28;27.10;53.50
21891;DHT22;11110;52.386;16.940;2023-10-31T05:24:57;27.10;53.60
21891;DHT22;11110;52.386;16.940;2023-10-31T05:27:25;27.10;53.50
21891;DHT22;11110;52.386;16.940;2023-10-31T05:29:56;27.10;53.50
21891;DHT22;11110;52.386;16.940;2023-10-31T05:32:24;27.10;53.30
21891;DHT22;11110;52.386;16.940;2023-10-31T05:34:54;27.10;53.30
21891;DHT22;11110;52.386;16.940;2023-10-31T05:37:26;27.10;53.40
21891;DHT22;11110;52.386;16.940;2023-10-31T05:39:55;27.10;53.40
21891;DHT22;11110;52.386;16.940;2023-10-31T05:42:23;27.10;53.40
21891;DHT22;11110;52.386;16.940;2023-10-31T05:44:52;27.20;53.30
21891;DHT22;11110;52.386;16.940;2023-10-31T05:47:21;27.20;53.20
21891;DHT22;11110;52.386;16.940;2023-10-31T05:49:50;27.20;53.40
21891;DHT22;11110;52.386;16.940;2023-10-31T05:52:20;27.20;53.50
21891;DHT22;11110;52.386;16.940;2023-10-31T05:54:49;27.20;53.40
21891;DHT22;11110;52.386;16.940;2023-10-31T05:57:17;27.20;53.50
21891;DHT22;11110;52.386;16.940;2023-10-31T05:59:46;27.20;53.50
21891;DHT22;11110;52.386;16.940;2023-10-31T06:02:14;27.20;53.50
21891;DHT22;11110;52.386;16.940;2023-10-31T06:04:43;27.20;53.40
21891;DHT22;11110;52.386;16.940;2023-10-31T06:07:12;27.20;53.40
21891;DHT22;11110;52.386;16.940;2023-10-31T06:09:42;27.20;53.40
21891;DHT22;11110;52.386;16.940;2023-10-31T06:12:11;27.30;53.40
21891;DHT22;11110;52.386;16.940;2023-10-31T06:14:39;27.30;53.30
21891;DHT22;11110;52.386;16.940;2023-10-31T06:17:08;27.30;53.40
21891;DHT22;11110;52.386;16.940;2023-10-31T06:19:37;27.30;53.40
21891;DHT22;11110;52.386;16.940;2023-10-31T06:22:05;27.30;53.30
21891;DHT22;11110;52.386;16.940;2023-10-31T06:24:34;27.30;53.20
21891;DHT22;11110;52.386;16.940;2023-10-31T06:27:05;27.30;53.40
21891;DHT22;11110;52.386;16.940;2023-10-31T06:29:33;27.40;53.60
21891;DHT22;11110;52.386;16.940;2023-10-31T06:32:22;27.40;53.40
21891;DHT22;11110;52.386;16.940;2023-10-31T06:34:51;27.30;53.40
21891;DHT22;11110;52.386;16.940;2023-10-31T06:37:20;27.40;53.40
21891;DHT22;11110;52.386;16.940;2023-10-31T06:39:49;27.40;53.40
21891;DHT22;11110;52.386;16.940;2023-10-31T06:42:19;27.40;53.50
21891;DHT22;11110;52.386;16.940;2023-10-31T06:44:48;27.40;54.10
21891;DHT22;11110;52.386;16.940;2023-10-31T06:47:16;27.40;53.50
21891;DHT22;11110;52.386;16.940;2023-10-31T06:49:45;27.40;53.60
21891;DHT22;11110;52.386;16.940;2023-10-31T06:52:14;27.40;53.60
21891;DHT22;11110;52.386;16.940;2023-10-31T06:54:43;27.40;53.60
21891;DHT22;11110;52.386;16.940;2023-10-31T06:57:12;27.40;53.70
21891;DHT22;11110;52.386;16.940;2023-10-31T06:59:42;27.50;53.60
21891;DHT22;11110;52.386;16.940;2023-10-31T07:02:10;27.50;53.60
21891;DHT22;11110;52.386;16.940;2023-10-31T07:04:39;27.50;53.60
21891;DHT22;11110;52.386;16.940;2023-10-31T07:07:11;27.50;53.70
21891;DHT22;11110;52.386;16.940;2023-10-31T07:09:40;27.50;53.90
21891;DHT22;11110;52.386;16.940;2023-10-31T07:12:08;27.50;54.00
21891;DHT22;11110;52.386;16.940;2023-10-31T07:14:37;27.50;54.10
21891;DHT22;11110;52.386;16.940;2023-10-31T07:17:07;27.50;54.00
21891;DHT22;11110;52.386;16.940;2023-10-31T07:19:36;27.50;54.30
21891;DHT22;11110;52.386;16.940;2023-10-31T07:22:05;27.40;54.40
21891;DHT22;11110;52.386;16.940;2023-10-31T07:24:34;27.40;54.40
21891;DHT22;11110;52.386;16.940;2023-10-31T07:27:03;27.40;54.50
21891;DHT22;11110;52.386;16.940;2023-10-31T07:29:32;27.40;54.60
21891;DHT22;11110;52.386;16.940;2023-10-31T07:32:01;27.40;54.60
21891;DHT22;11110;52.386;16.940;2023-10-31T07:34:31;27.40;54.80
21891;DHT22;11110;52.386;16.940;2023-10-31T07:37:00;27.40;54.60
21891;DHT22;11110;52.386;16.940;2023-10-31T07:39:29;27.40;54.50
21891;DHT22;11110;52.386;16.940;2023-10-31T07:41:57;27.40;54.50
21891;DHT22;11110;52.386;16.940;2023-10-31T07:44:26;27.40;54.40
21891;DHT22;11110;52.386;16.940;2023-10-31T07:46:55;27.30;54.20
21891;DHT22;11110;52.386;16.940;2023-10-31T07:49:24;27.30;54.20
21891;DHT22;11110;52.386;16.940;2023-10-31T07:51:54;27.30;54.10
21891;DHT22;11110;52.386;16.940;2023-10-31T07:54:23;27.20;54.10
21891;DHT22;11110;52.386;16.940;2023-10-31T07:56:52;27.10;54.20
21891;DHT22;11110;52.386;16.940;2023-10-31T07:59:22;27.10;54.30
21891;DHT22;11110;52.386;16.940;2023-10-31T08:01:51;27.10;54.10
21891;DHT22;11110;52.386;16.940;2023-10-31T08:04:20;27.10;54.10
21891;DHT22;11110;52.386;16.940;2023-10-31T08:06:48;27.10;54.10
21891;DHT22;11110;52.386;16.940;2023-10-31T08:09:18;27.10;54.20
21891;DHT22;11110;52.386;16.940;2023-10-31T08:11:47;27.00;54.20
21891;DHT22;11110;52.386;16.940;2023-10-31T08:14:16;27.10;54.20
21891;DHT22;11110;52.386;16.940;2023-10-31T08:16:44;26.90;54.00
21891;DHT22;11110;52.386;16.940;2023-10-31T08:19:13;27.00;54.00
21891;DHT22;11110;52.386;16.940;2023-10-31T08:21:42;26.90;53.80
21891;DHT22;11110;52.386;16.940;2023-10-31T08:24:10;26.90;53.90
21891;DHT22;11110;52.386;16.940;2023-10-31T08:26:41;26.90;54.60
21891;DHT22;11110;52.386;16.940;2023-10-31T08:29:10;26.90;54.10
21891;DHT22;11110;52.386;16.940;2023-10-31T08:31:39;26.90;54.10
21891;DHT22;11110;52.386;16.940;2023-10-31T08:34:08;26.90;54.70
21891;DHT22;11110;52.386;16.940;2023-10-31T08:36:37;26.90;54.00
21891;DHT22;11110;52.386;16.940;2023-10-31T08:39:06;26.90;53.90
21891;DHT22;11110;52.386;16.940;2023-10-31T08:41:50;26.90;54.00
21891;DHT22;11110;52.386;16.940;2023-10-31T08:44:19;26.90;53.80
21891;DHT22;11110;52.386;16.940;2023-10-31T08:46:48;26.80;53.90
21891;DHT22;11110;52.386;16.940;2023-10-31T08:49:17;26.80;54.10
21891;DHT22;11110;52.386;16.940;2023-10-31T08:51:46;26.80;53.90
21891;DHT22;11110;52.386;16.940;2023-10-31T08:54:14;26.70;53.90
21891;DHT22;11110;52.386;16.940;2023-10-31T08:56:43;26.80;54.10
21891;DHT22;11110;52.386;16.940;2023-10-31T08:59:13;26.80;54.00
21891;DHT22;11110;52.386;16.940;2023-10-31T09:01:41;26.80;53.80
21891;DHT22;11110;52.386;16.940;2023-10-31T09:04:10;26.80;53.90
21891;DHT22;11110;52.386;16.940;2023-10-31T09:06:39;26.70;54.00
21891;DHT22;11110;52.386;16.940;2023-10-31T09:09:07;26.80;53.90
21891;DHT22;11110;52.386;16.940;2023-10-31T09:11:37;26.70;53.90
21891;DHT22;11110;52.386;16.940;2023-10-31T09:14:06;26.70;54.00
21891;DHT22;11110;52.386;16.940;2023-10-31T09:16:36;26.80;53.80
21891;DHT22;11110;52.386;16.940;2023-10-31T09:19:04;26.70;53.80
21891;DHT22;11110;52.386;16.940;2023-10-31T09:21:33;26.70;53.80
21891;DHT22;11110;52.386;16.940;2023-10-31T09:24:02;26.80;53.70
21891;DHT22;11110;52.386;16.940;2023-10-31T09:26:31;26.80;53.70
21891;DHT22;11110;52.386;16.940;2023-10-31T09:28:59;26.70;53.50
21891;DHT22;11110;52.386;16.940;2023-10-31T09:31:28;26.70;53.70
21891;DHT22;11110;52.386;16.940;2023-10-31T09:33:58;26.60;53.60
21891;DHT22;11110;52.386;16.940;2023-10-31T09:36:26;26.70;53.80
21891;DHT22;11110;52.386;16.940;2023-10-31T09:38:55;26.60;53.60
21891;DHT22;11110;52.386;16.940;2023-10-31T09:41:24;26.70;53.70
21891;DHT22;11110;52.386;16.940;2023-10-31T09:43:54;26.70;53.50
21891;DHT22;11110;52.386;16.940;2023-10-31T09:46:22;26.70;53.30
21891;DHT22;11110;52.386;16.940;2023-10-31T09:48:51;26.70;53.30
21891;DHT22;11110;52.386;16.940;2023-10-31T09:51:21;26.70;53.40
21891;DHT22;11110;52.386;16.940;2023-10-31T09:53:54;26.60;53.40
21891;DHT22;11110;52.386;16.940;2023-10-31T09:56:23;26.70;53.60
21891;DHT22;11110;52.386;16.940;2023-10-31T09:58:51;26.60;53.40
21891;DHT22;11110;52.386;16.940;2023-10-31T10:01:20;26.60;53.40
21891;DHT22;11110;52.386;16.940;2023-10-31T10:03:49;26.70;53.50
21891;DHT22;11110;52.386;16.940;2023-10-31T10:06:18;26.70;53.50
21891;DHT22;11110;52.386;16.940;2023-10-31T10:08:50;26.70;53.40
21891;DHT22;11110;52.386;16.940;2023-10-31T10:11:18;26.60;53.40
21891;DHT22;11110;52.386;16.940;2023-10-31T10:13:47;26.60;53.30
21891;DHT22;11110;52.386;16.940;2023-10-31T10:16:28;26.60;53.40
21891;DHT22;11110;52.386;16.940;2023-10-31T10:18:57;26.60;53.50
21891;DHT22;11110;52.386;16.940;2023-10-31T10:21:25;26.70;53.70
21891;DHT22;11110;52.386;16.940;2023-10-31T10:24:10;26.70;53.40
21891;DHT22;11110;52.386;16.940;2023-10-31T10:26:39;26.70;53.40
21891;DHT22;11110;52.386;16.940;2023-10-31T10:29:07;26.70;53.30
21891;DHT22;11110;52.386;16.940;2023-10-31T10:31:36;26.70;53.20
21891;DHT22;11110;52.386;16.940;2023-10-31T10:34:04;26.70;53.30
21891;DHT22;11110;52.386;16.940;2023-10-31T10:36:34;26.80;53.40
21891;DHT22;11110;52.386;16.940;2023-10-31T10:39:03;26.80;53.40
21891;DHT22;11110;52.386;16.940;2023-10-31T10:41:35;26.70;53.50
21891;DHT22;11110;52.386;16.940;2023-10-31T10:44:05;26.70;53.60
21891;DHT22;11110;52.386;16.940;2023-10-31T10:46:36;26.60;53.50
21891;DHT22;11110;52.386;16.940;2023-10-31T10:49:07;26.60;53.60
21891;DHT22;11110;52.386;16.940;2023-10-31T10:51:43;26.70;53.60
21891;DHT22;11110;52.386;16.940;2023-10-31T10:54:17;26.70;53.50
21891;DHT22;11110;52.386;16.940;2023-10-31T10:56:54;26.70;54.20
21891;DHT22;11110;52.386;16.940;2023-10-31T10:59:30;26.70;53.50
21891;DHT22;11110;52.386;16.940;2023-10-31T11:02:04;26.70;53.60
21891;DHT22;11110;52.386;16.940;2023-10-31T11:04:34;26.70;53.50
21891;DHT22;11110;52.386;16.940;2023-10-31T11:07:05;26.70;53.60
21891;DHT22;11110;52.386;16.940;2023-10-31T11:09:33;26.70;53.70
21891;DHT22;11110;52.386;16.940;2023-10-31T11:12:04;26.60;53.60
21891;DHT22;11110;52.386;16.940;2023-10-31T11:14:33;26.60;53.60
21891;DHT22;11110;52.386;16.940;2023-10-31T11:17:11;26.60;53.50
21891;DHT22;11110;52.386;16.940;2023-10-31T11:19:43;26.70;53.20
21891;DHT22;11110;52.386;16.940;2023-10-31T11:22:12;26.60;53.20
21891;DHT22;11110;52.386;16.940;2023-10-31T11:24:42;26.60;53.00
21891;DHT22;11110;52.386;16.940;2023-10-31T11:27:12;26.60;52.60
21891;DHT22;11110;52.386;16.940;2023-10-31T11:29:40;26.60;52.40
21891;DHT22;11110;52.386;16.940;2023-10-31T11:32:09;26.50;52.10
21891;DHT22;11110;52.386;16.940;2023-10-31T11:34:39;26.50;51.80
21891;DHT22;11110;52.386;16.940;2023-10-31T11:37:24;26.40;51.90
21891;DHT22;11110;52.386;16.940;2023-10-31T11:40:17;26.50;51.40
21891;DHT22;11110;52.386;16.940;2023-10-31T11:42:52;26.40;50.80
21891;DHT22;11110;52.386;16.940;2023-10-31T11:45:29;26.30;50.80
21891;DHT22;11110;52.386;16.940;2023-10-31T11:47:58;26.30;50.40
21891;DHT22;11110;52.386;16.940;2023-10-31T11:50:27;26.20;50.00
21891;DHT22;11110;52.386;16.940;2023-10-31T11:53:04;26.20;49.60
21891;DHT22;11110;52.386;16.940;2023-10-31T11:55:34;26.20;49.30
21891;DHT22;11110;52.386;16.940;2023-10-31T11:58:15;26.10;49.20
21891;DHT22;11110;52.386;16.940;2023-10-31T12:00:44;26.20;47.90
21891;DHT22;11110;52.386;16.940;2023-10-31T12:03:15;26.10;47.80
21891;DHT22;11110;52.386;16.940;2023-10-31T12:05:54;26.00;47.50
21891;DHT22;11110;52.386;16.940;2023-10-31T12:08:27;26.10;47.70
21891;DHT22;11110;52.386;16.940;2023-10-31T12:11:07;26.00;47.90
21891;DHT22;11110;52.386;16.940;2023-10-31T12:13:38;25.90;47.90
21891;DHT22;11110;52.386;16.940;2023-10-31T12:16:09;25.80;47.70
21891;DHT22;11110;52.386;16.940;2023-10-31T12:18:38;25.90;47.80
21891;DHT22;11110;52.386;16.940;2023-10-31T12:21:07;25.90;48.10
21891;DHT22;11110;52.386;16.940;2023-10-31T12:23:38;26.00;48.20
21891;DHT22;11110;52.386;16.940;2023-10-31T12:26:06;26.00;48.00
21891;DHT22;11110;52.386;16.940;2023-10-31T12:28:36;26.20;47.90
21891;DHT22;11110;52.386;16.940;2023-10-31T12:31:06;26.20;47.90
21891;DHT22;11110;52.386;16.940;2023-10-31T12:33:34;26.20;48.10
21891;DHT22;11110;52.386;16.940;2023-10-31T12:36:04;26.10;47.80
21891;DHT22;11110;52.386;16.940;2023-10-31T12:38:33;26.10;48.10
21891;DHT22;11110;52.386;16.940;2023-10-31T12:41:03;26.10;48.20
21891;DHT22;11110;52.386;16.940;2023-10-31T12:43:32;26.10;48.10
21891;DHT22;11110;52.386;16.940;2023-10-31T12:46:27;26.00;48.10
21891;DHT22;11110;52.386;16.940;2023-10-31T12:48:56;26.10;48.30
21891;DHT22;11110;52.386;16.940;2023-10-31T12:51:25;26.10;48.50
21891;DHT22;11110;52.386;16.940;2023-10-31T12:53:54;26.10;48.60
21891;DHT22;11110;52.386;16.940;2023-10-31T12:56:39;26.10;48.40
21891;DHT22;11110;52.386;16.940;2023-10-31T12:59:09;26.20;48.30
21891;DHT22;11110;52.386;16.940;2023-10-31T13:01:44;26.20;48.40
21891;DHT22;11110;52.386;16.940;2023-10-31T13:04:12;26.20;48.40
21891;DHT22;11110;52.386;16.940;2023-10-31T13:06:56;26.20;48.30
21891;DHT22;11110;52.386;16.940;2023-10-31T13:09:31;26.20;48.80
21891;DHT22;11110;52.386;16.940;2023-10-31T13:12:03;26.10;48.40
21891;DHT22;11110;52.386;16.940;2023-10-31T13:14:33;26.20;48.40
21891;DHT22;11110;52.386;16.940;2023-10-31T13:17:03;26.20;48.30
21891;DHT22;11110;52.386;16.940;2023-10-31T13:19:34;26.20;48.30
21891;DHT22;11110;52.386;16.940;2023-10-31T13:22:03;26.30;48.80
21891;DHT22;11110;52.386;16.940;2023-10-31T13:24:31;26.30;47.90
21891;DHT22;11110;52.386;16.940;2023-10-31T13:27:01;26.40;47.60
21891;DHT22;11110;52.386;16.940;2023-10-31T13:29:31;26.40;47.60
21891;DHT22;11110;52.386;16.940;2023-10-31T13:32:00;26.50;47.10
21891;DHT22;11110;52.386;16.940;2023-10-31T13:34:30;26.50;46.80
21891;DHT22;11110;52.386;16.940;2023-10-31T13:37:00;26.50;46.90
21891;DHT22;11110;52.386;16.940;2023-10-31T13:39:29;26.60;46.80
21891;DHT22;11110;52.386;16.940;2023-10-31T13:41:58;26.60;46.50
21891;DHT22;11110;52.386;16.940;2023-10-31T13:44:27;26.70;46.40
21891;DHT22;11110;52.386;16.940;2023-10-31T13:46:55;26.80;46.10
21891;DHT22;11110;52.386;16.940;2023-10-31T13:49:24;26.70;45.90
21891;DHT22;11110;52.386;16.940;2023-10-31T13:51:54;26.70;45.90
21891;DHT22;11110;52.386;16.940;2023-10-31T13:54:23;26.80;45.90
21891;DHT22;11110;52.386;16.940;2023-10-31T13:56:51;26.80;45.70
21891;DHT22;11110;52.386;16.940;2023-10-31T13:59:20;26.80;45.80
21891;DHT22;11110;52.386;16.940;2023-10-31T14:01:49;26.80;45.80
21891;DHT22;11110;52.386;16.940;2023-10-31T14:04:19;26.80;45.80
21891;DHT22;11110;52.386;16.940;2023-10-31T14:06:49;26.90;45.70
21891;DHT22;11110;52.386;16.940;2023-10-31T14:09:20;26.90;45.90
21891;DHT22;11110;52.386;16.940;2023-10-31T14:11:48;26.90;45.70
21891;DHT22;11110;52.386;16.940;2023-10-31T14:14:20;26.80;45.70
21891;DHT22;11110;52.386;16.940;2023-10-31T14:16:49;26.80;45.60
21891;DHT22;11110;52.386;16.940;2023-10-31T14:19:17;26.90;45.60
21891;DHT22;11110;52.386;16.940;2023-10-31T14:21:48;26.90;45.50
21891;DHT22;11110;52.386;16.940;2023-10-31T14:24:17;26.90;45.60
21891;DHT22;11110;52.386;16.940;2023-10-31T14:26:47;26.90;45.20
21891;DHT22;11110;52.386;16.940;2023-10-31T14:29:16;26.80;45.50
21891;DHT22;11110;52.386;16.940;2023-10-31T14:31:44;26.90;45.30
21891;DHT22;11110;52.386;16.940;2023-10-31T14:34:14;26.90;45.20
21891;DHT22;11110;52.386;16.940;2023-10-31T14:36:44;26.90;45.00
21891;DHT22;11110;52.386;16.940;2023-10-31T14:39:13;26.80;45.10
21891;DHT22;11110;52.386;16.940;2023-10-31T14:41:42;26.90;44.80
21891;DHT22;11110;52.386;16.940;2023-10-31T14:44:15;26.90;44.70
21891;DHT22;11110;52.386;16.940;2023-10-31T14:46:43;26.90;44.70
21891;DHT22;11110;52.386;16.940;2023-10-31T14:49:12;26.80;44.60
21891;DHT22;11110;52.386;16.940;2023-10-31T14:51:41;26.80;44.70
21891;DHT22;11110;52.386;16.940;2023-10-31T14:54:10;26.80;44.80
21891;DHT22;11110;52.386;16.940;2023-10-31T14:56:39;26.70;44.70
21891;DHT22;11110;52.386;16.940;2023-10-31T14:59:10;26.70;44.50
21891;DHT22;11110;52.386;16.940;2023-10-31T15:01:39;26.70;44.50
21891;DHT22;11110;52.386;16.940;2023-10-31T15:04:08;26.70;44.60
21891;DHT22;11110;52.386;16.940;2023-10-31T15:06:38;26.70;44.50
21891;DHT22;11110;52.386;16.940;2023-10-31T15:09:06;26.70;44.10
21891;DHT22;11110;52.386;16.940;2023-10-31T15:11:35;26.70;44.30
21891;DHT22;11110;52.386;16.940;2023-10-31T15:14:04;26.60;44.10
21891;DHT22;11110;52.386;16.940;2023-10-31T15:16:35;26.60;44.00
21891;DHT22;11110;52.386;16.940;2023-10-31T15:19:05;26.70;44.00
21891;DHT22;11110;52.386;16.940;2023-10-31T15:21:34;26.70;44.00
21891;DHT22;11110;52.386;16.940;2023-10-31T15:24:03;26.60;44.00
21891;DHT22;11110;52.386;16.940;2023-10-31T15:26:35;26.70;43.90
21891;DHT22;11110;52.386;16.940;2023-10-31T15:29:07;26.60;43.90
21891;DHT22;11110;52.386;16.940;2023-10-31T15:31:42;26.50;44.00